sensor_id;sensor_type;location;lat;lon;timestamp;pressure;altitude;pressure_sealevel;temperature;humidity
4745;BME280;2386;42.138;24.746;2024-01-30T00:02:13;101817.88;;;4.35;60.94
4745;BME280;2386;42.138;24.746;2024-01-30T00:04:38;101820.97;;;4.31;60.77
4745;BME280;2386;42.138;24.746;2024-01-30T00:07:03;101826.34;;;4.31;61.98
4745;BME280;2386;42.138;24.746;2024-01-30T00:09:29;101828.59;;;4.25;61.96
4745;BME280;2386;42.138;24.746;2024-01-30T00:11:54;101826.03;;;4.24;61.46
4745;BME280;2386;42.138;24.746;2024-01-30T00:14:20;101829.13;;;4.19;61.86
4745;BME280;2386;42.138;24.746;2024-01-30T00:16:45;101827.72;;;4.25;61.17
4745;BME280;2386;42.138;24.746;2024-01-30T00:19:10;101831.25;;;4.25;60.93
4745;BME280;2386;42.138;24.746;2024-01-30T00:21:36;101830.88;;;4.30;60.42
4745;BME280;2386;42.138;24.746;2024-01-30T00:24:01;101817.88;;;4.35;60.98
4745;BME280;2386;42.138;24.746;2024-01-30T00:26:27;101828.06;;;4.51;60.02
4745;BME280;2386;42.138;24.746;2024-01-30T00:28:52;101824.16;;;4.65;59.52
4745;BME280;2386;42.138;24.746;2024-01-30T00:31:17;101828.97;;;4.71;59.34
4745;BME280;2386;42.138;24.746;2024-01-30T00:33:43;101825.53;;;4.49;59.42
4745;BME280;2386;42.138;24.746;2024-01-30T00:36:09;101829.47;;;4.36;60.19
4745;BME280;2386;42.138;24.746;2024-01-30T00:38:35;101824.94;;;4.36;60.39
4745;BME280;2386;42.138;24.746;2024-01-30T00:41:01;101822.69;;;4.41;60.33
4745;BME280;2386;42.138;24.746;2024-01-30T00:43:27;101829.34;;;4.37;60.66
4745;BME280;2386;42.138;24.746;2024-01-30T00:45:53;101836.00;;;4.43;60.66
4745;BME280;2386;42.138;24.746;2024-01-30T00:48:19;101831.47;;;4.43;60.57
4745;BME280;2386;42.138;24.746;2024-01-30T00:50:44;101837.25;;;4.48;61.27
4745;BME280;2386;42.138;24.746;2024-01-30T00:53:10;101831.13;;;4.27;61.14
4745;BME280;2386;42.138;24.746;2024-01-30T00:55:35;101832.03;;;4.07;64.51
4745;BME280;2386;42.138;24.746;2024-01-30T00:58:01;101835.56;;;4.07;64.34
4745;BME280;2386;42.138;24.746;2024-01-30T01:00:26;101829.25;;;4.18;62.90
4745;BME280;2386;42.138;24.746;2024-01-30T01:02:58;101827.63;;;4.06;62.38
4745;BME280;2386;42.138;24.746;2024-01-30T01:05:23;101828.97;;;4.21;63.42
4745;BME280;2386;42.138;24.746;2024-01-30T01:07:49;101827.59;;;4.26;61.60
4745;BME280;2386;42.138;24.746;2024-01-30T01:10:15;101830.78;;;4.11;62.58
4745;BME280;2386;42.138;24.746;2024-01-30T01:12:41;101829.84;;;4.21;62.23
4745;BME280;2386;42.138;24.746;2024-01-30T01:15:07;101818.16;;;4.32;61.46
4745;BME280;2386;42.138;24.746;2024-01-30T01:17:38;101826.09;;;4.43;61.23
4745;BME280;2386;42.138;24.746;2024-01-30T01:20:04;101817.91;;;4.54;60.66
4745;BME280;2386;42.138;24.746;2024-01-30T01:22:31;101822.25;;;4.36;61.66
4745;BME280;2386;42.138;24.746;2024-01-30T01:24:57;101818.31;;;4.40;61.70
4745;BME280;2386;42.138;24.746;2024-01-30T01:27:23;101808.13;;;4.34;63.13
4745;BME280;2386;42.138;24.746;2024-01-30T01:29:48;101803.81;;;4.22;63.63
4745;BME280;2386;42.138;24.746;2024-01-30T01:32:14;101803.44;;;4.36;62.72
4745;BME280;2386;42.138;24.746;2024-01-30T01:34:39;101796.38;;;4.35;62.96
4745;BME280;2386;42.138;24.746;2024-01-30T01:37:04;101801.16;;;4.22;64.05
4745;BME280;2386;42.138;24.746;2024-01-30T01:39:30;101807.44;;;4.42;62.52
4745;BME280;2386;42.138;24.746;2024-01-30T01:41:55;101808.28;;;4.42;63.03
4745;BME280;2386;42.138;24.746;2024-01-30T01:44:21;101800.50;;;4.49;63.32
4745;BME280;2386;42.138;24.746;2024-01-30T01:46:47;101798.91;;;4.27;64.84
4745;BME280;2386;42.138;24.746;2024-01-30T01:49:13;101802.44;;;4.27;64.83
4745;BME280;2386;42.138;24.746;2024-01-30T01:51:41;101803.03;;;4.01;66.71
4745;BME280;2386;42.138;24.746;2024-01-30T01:54:07;101804.38;;;3.85;67.43
4745;BME280;2386;42.138;24.746;2024-01-30T01:56:34;101801.50;;;3.77;67.17
4745;BME280;2386;42.138;24.746;2024-01-30T01:59:05;101801.41;;;3.88;65.78
4745;BME280;2386;42.138;24.746;2024-01-30T02:01:32;101822.50;;;3.72;67.91
4745;BME280;2386;42.138;24.746;2024-01-30T02:03:59;101810.53;;;3.76;66.41
4745;BME280;2386;42.138;24.746;2024-01-30T02:06:24;101809.00;;;3.83;66.30
4745;BME280;2386;42.138;24.746;2024-01-30T02:08:50;101804.41;;;3.95;65.32
4745;BME280;2386;42.138;24.746;2024-01-30T02:11:15;101802.44;;;3.97;64.77
4745;BME280;2386;42.138;24.746;2024-01-30T02:13:42;101800.34;;;4.01;63.44
4745;BME280;2386;42.138;24.746;2024-01-30T02:16:08;101816.84;;;3.96;64.47
4745;BME280;2386;42.138;24.746;2024-01-30T02:18:33;101813.06;;;3.78;65.62
4745;BME280;2386;42.138;24.746;2024-01-30T02:23:27;101814.09;;;3.56;66.59
4745;BME280;2386;42.138;24.746;2024-01-30T02:25:52;101816.00;;;3.65;65.72
4745;BME280;2386;42.138;24.746;2024-01-30T02:28:19;101817.91;;;3.01;67.64
4745;BME280;2386;42.138;24.746;2024-01-30T02:30:46;101813.09;;;3.15;69.11
4745;BME280;2386;42.138;24.746;2024-01-30T02:33:12;101816.31;;;2.98;70.91
4745;BME280;2386;42.138;24.746;2024-01-30T02:35:37;101823.44;;;2.88;70.95
4745;BME280;2386;42.138;24.746;2024-01-30T02:38:03;101830.28;;;3.13;70.01
4745;BME280;2386;42.138;24.746;2024-01-30T02:40:29;101828.38;;;3.04;71.15
4745;BME280;2386;42.138;24.746;2024-01-30T02:42:54;101828.56;;;3.12;70.70
4745;BME280;2386;42.138;24.746;2024-01-30T02:45:20;101830.41;;;3.11;72.26
4745;BME280;2386;42.138;24.746;2024-01-30T02:47:45;101836.72;;;3.21;71.26
4745;BME280;2386;42.138;24.746;2024-01-30T02:50:11;101826.78;;;3.01;72.17
4745;BME280;2386;42.138;24.746;2024-01-30T02:52:36;101829.94;;;3.06;73.40
4745;BME280;2386;42.138;24.746;2024-01-30T02:55:02;101833.66;;;2.94;72.66
4745;BME280;2386;42.138;24.746;2024-01-30T02:57:28;101830.16;;;2.82;73.43
4745;BME280;2386;42.138;24.746;2024-01-30T02:59:54;101842.72;;;2.82;75.27
4745;BME280;2386;42.138;24.746;2024-01-30T03:02:19;101841.59;;;2.95;74.38
4745;BME280;2386;42.138;24.746;2024-01-30T03:04:45;101837.94;;;2.96;73.36
4745;BME280;2386;42.138;24.746;2024-01-30T03:07:11;101846.94;;;2.95;74.17
4745;BME280;2386;42.138;24.746;2024-01-30T03:09:37;101842.59;;;2.83;75.24
4745;BME280;2386;42.138;24.746;2024-01-30T03:12:03;101851.22;;;2.87;74.38
4745;BME280;2386;42.138;24.746;2024-01-30T03:14:30;101839.09;;;2.60;76.73
4745;BME280;2386;42.138;24.746;2024-01-30T03:16:56;101837.41;;;2.59;77.04
4745;BME280;2386;42.138;24.746;2024-01-30T03:19:21;101844.22;;;2.63;77.61
4745;BME280;2386;42.138;24.746;2024-01-30T03:21:47;101844.66;;;2.80;77.55
4745;BME280;2386;42.138;24.746;2024-01-30T03:24:12;101840.03;;;2.82;77.28
4745;BME280;2386;42.138;24.746;2024-01-30T03:26:37;101835.56;;;3.03;74.61
4745;BME280;2386;42.138;24.746;2024-01-30T03:29:03;101824.53;;;3.17;72.55
4745;BME280;2386;42.138;24.746;2024-01-30T03:31:28;101819.78;;;3.21;71.29
4745;BME280;2386;42.138;24.746;2024-01-30T03:33:54;101823.94;;;3.14;72.37
4745;BME280;2386;42.138;24.746;2024-01-30T03:36:19;101824.19;;;3.11;72.82
4745;BME280;2386;42.138;24.746;2024-01-30T03:38:45;101824.03;;;3.23;72.04
4745;BME280;2386;42.138;24.746;2024-01-30T03:41:10;101828.25;;;3.05;73.40
4745;BME280;2386;42.138;24.746;2024-01-30T03:43:36;101828.38;;;2.60;76.48
4745;BME280;2386;42.138;24.746;2024-01-30T03:46:02;101838.88;;;2.52;78.37
4745;BME280;2386;42.138;24.746;2024-01-30T03:48:29;101821.81;;;2.64;78.16
4745;BME280;2386;42.138;24.746;2024-01-30T03:50:54;101832.72;;;2.84;78.36
4745;BME280;2386;42.138;24.746;2024-01-30T03:53:19;101827.84;;;3.10;76.40
4745;BME280;2386;42.138;24.746;2024-01-30T03:55:45;101821.66;;;3.09;75.55
4745;BME280;2386;42.138;24.746;2024-01-30T03:58:10;101823.03;;;3.24;74.53
4745;BME280;2386;42.138;24.746;2024-01-30T04:00:36;101823.16;;;3.23;74.89
4745;BME280;2386;42.138;24.746;2024-01-30T04:03:01;101828.44;;;2.92;77.33
4745;BME280;2386;42.138;24.746;2024-01-30T04:05:27;101811.22;;;2.52;78.53
4745;BME280;2386;42.138;24.746;2024-01-30T04:07:52;101838.13;;;2.61;79.08
4745;BME280;2386;42.138;24.746;2024-01-30T04:10:17;101837.59;;;2.79;78.50
4745;BME280;2386;42.138;24.746;2024-01-30T04:12:43;101834.56;;;3.04;76.12
4745;BME280;2386;42.138;24.746;2024-01-30T04:15:08;101835.88;;;2.89;76.71
4745;BME280;2386;42.138;24.746;2024-01-30T04:17:34;101839.69;;;3.07;75.43
4745;BME280;2386;42.138;24.746;2024-01-30T04:19:59;101838.25;;;2.60;76.52
4745;BME280;2386;42.138;24.746;2024-01-30T04:22:25;101836.19;;;2.63;77.79
4745;BME280;2386;42.138;24.746;2024-01-30T04:24:50;101833.19;;;2.89;75.87
4745;BME280;2386;42.138;24.746;2024-01-30T04:27:15;101827.38;;;2.73;77.26
4745;BME280;2386;42.138;24.746;2024-01-30T04:29:41;101835.47;;;2.50;79.99
4745;BME280;2386;42.138;24.746;2024-01-30T04:32:06;101839.63;;;2.43;80.26
4745;BME280;2386;42.138;24.746;2024-01-30T04:34:31;101848.25;;;2.24;81.71
4745;BME280;2386;42.138;24.746;2024-01-30T04:36:57;101846.72;;;2.22;81.50
4745;BME280;2386;42.138;24.746;2024-01-30T04:39:22;101853.25;;;2.29;82.32
4745;BME280;2386;42.138;24.746;2024-01-30T04:41:47;101844.50;;;2.27;83.01
4745;BME280;2386;42.138;24.746;2024-01-30T04:44:13;101851.53;;;2.28;83.23
4745;BME280;2386;42.138;24.746;2024-01-30T04:46:39;101858.47;;;2.30;83.05
4745;BME280;2386;42.138;24.746;2024-01-30T04:49:04;101859.69;;;2.26;82.55
4745;BME280;2386;42.138;24.746;2024-01-30T04:51:30;101862.25;;;2.50;81.11
4745;BME280;2386;42.138;24.746;2024-01-30T04:53:55;101877.09;;;2.43;78.75
4745;BME280;2386;42.138;24.746;2024-01-30T04:56:21;101866.88;;;2.26;78.79
4745;BME280;2386;42.138;24.746;2024-01-30T04:58:47;101852.03;;;2.44;79.08
4745;BME280;2386;42.138;24.746;2024-01-30T05:01:18;101862.25;;;2.50;80.06
4745;BME280;2386;42.138;24.746;2024-01-30T05:03:44;101865.16;;;2.47;79.34
4745;BME280;2386;42.138;24.746;2024-01-30T05:06:09;101866.88;;;2.59;77.92
4745;BME280;2386;42.138;24.746;2024-01-30T05:08:34;101872.00;;;2.51;78.21
4745;BME280;2386;42.138;24.746;2024-01-30T05:11:05;101867.47;;;2.63;78.18
4745;BME280;2386;42.138;24.746;2024-01-30T05:13:31;101872.19;;;2.82;77.79
4745;BME280;2386;42.138;24.746;2024-01-30T05:15:56;101872.06;;;2.83;76.64
4745;BME280;2386;42.138;24.746;2024-01-30T05:18:21;101878.50;;;2.92;77.45
4745;BME280;2386;42.138;24.746;2024-01-30T05:20:47;101875.00;;;2.80;76.50
4745;BME280;2386;42.138;24.746;2024-01-30T05:23:12;101872.94;;;2.73;76.05
4745;BME280;2386;42.138;24.746;2024-01-30T05:25:38;101867.81;;;2.70;77.61
4745;BME280;2386;42.138;24.746;2024-01-30T05:28:03;101874.00;;;2.92;76.02
4745;BME280;2386;42.138;24.746;2024-01-30T05:30:29;101864.19;;;2.71;76.18
4745;BME280;2386;42.138;24.746;2024-01-30T05:32:55;101870.50;;;2.81;77.82
4745;BME280;2386;42.138;24.746;2024-01-30T05:35:20;101872.84;;;3.06;75.50
4745;BME280;2386;42.138;24.746;2024-01-30T05:37:48;101863.78;;;3.18;74.94
4745;BME280;2386;42.138;24.746;2024-01-30T05:40:14;101867.09;;;3.11;74.82
4745;BME280;2386;42.138;24.746;2024-01-30T05:42:39;101869.59;;;3.23;74.72
4745;BME280;2386;42.138;24.746;2024-01-30T05:45:05;101857.25;;;3.32;73.76
4745;BME280;2386;42.138;24.746;2024-01-30T05:47:30;101872.84;;;3.38;74.15
4745;BME280;2386;42.138;24.746;2024-01-30T05:49:56;101868.66;;;3.45;72.67
4745;BME280;2386;42.138;24.746;2024-01-30T05:52:21;101862.59;;;3.11;73.82
4745;BME280;2386;42.138;24.746;2024-01-30T05:54:46;101873.88;;;3.26;73.32
4745;BME280;2386;42.138;24.746;2024-01-30T05:57:12;101866.50;;;3.07;75.10
4745;BME280;2386;42.138;24.746;2024-01-30T05:59:37;101872.91;;;2.95;77.70
4745;BME280;2386;42.138;24.746;2024-01-30T06:02:03;101865.72;;;3.16;76.51
4745;BME280;2386;42.138;24.746;2024-01-30T06:04:28;101862.88;;;3.29;75.96
4745;BME280;2386;42.138;24.746;2024-01-30T06:06:54;101865.66;;;3.39;75.35
4745;BME280;2386;42.138;24.746;2024-01-30T06:09:19;101864.47;;;3.32;74.97
4745;BME280;2386;42.138;24.746;2024-01-30T06:11:45;101858.38;;;3.29;76.06
4745;BME280;2386;42.138;24.746;2024-01-30T06:14:10;101863.44;;;3.44;74.36
4745;BME280;2386;42.138;24.746;2024-01-30T06:16:35;101876.59;;;3.47;73.67
4745;BME280;2386;42.138;24.746;2024-01-30T06:19:01;101874.56;;;3.60;74.20
4745;BME280;2386;42.138;24.746;2024-01-30T06:21:26;101880.53;;;3.63;74.15
4745;BME280;2386;42.138;24.746;2024-01-30T06:23:52;101873.81;;;3.37;74.38
4745;BME280;2386;42.138;24.746;2024-01-30T06:26:17;101884.09;;;3.32;75.09
4745;BME280;2386;42.138;24.746;2024-01-30T06:28:42;101881.31;;;3.22;76.38
4745;BME280;2386;42.138;24.746;2024-01-30T06:31:08;101878.66;;;3.11;76.46
4745;BME280;2386;42.138;24.746;2024-01-30T06:33:33;101880.34;;;3.23;76.22
4745;BME280;2386;42.138;24.746;2024-01-30T06:35:58;101887.16;;;3.27;76.22
4745;BME280;2386;42.138;24.746;2024-01-30T06:38:24;101883.53;;;3.17;77.33
4745;BME280;2386;42.138;24.746;2024-01-30T06:40:49;101889.06;;;3.37;76.66
4745;BME280;2386;42.138;24.746;2024-01-30T06:43:14;101877.56;;;3.14;77.72
4745;BME280;2386;42.138;24.746;2024-01-30T06:45:40;101876.63;;;3.36;78.22
4745;BME280;2386;42.138;24.746;2024-01-30T06:48:07;101878.84;;;3.30;77.34
4745;BME280;2386;42.138;24.746;2024-01-30T06:50:32;101884.97;;;3.21;77.98
4745;BME280;2386;42.138;24.746;2024-01-30T06:52:58;101882.53;;;3.18;79.43
4745;BME280;2386;42.138;24.746;2024-01-30T06:55:23;101882.03;;;3.24;78.68
4745;BME280;2386;42.138;24.746;2024-01-30T06:57:49;101879.63;;;3.21;79.48
4745;BME280;2386;42.138;24.746;2024-01-30T07:00:15;101879.66;;;3.42;77.57
4745;BME280;2386;42.138;24.746;2024-01-30T07:02:41;101883.22;;;3.32;79.06
4745;BME280;2386;42.138;24.746;2024-01-30T07:05:07;101892.56;;;3.48;77.73
4745;BME280;2386;42.138;24.746;2024-01-30T07:07:33;101891.44;;;3.51;76.74
4745;BME280;2386;42.138;24.746;2024-01-30T07:09:58;101892.22;;;3.42;76.13
4745;BME280;2386;42.138;24.746;2024-01-30T07:12:24;101894.00;;;3.20;78.21
4745;BME280;2386;42.138;24.746;2024-01-30T07:14:52;101895.88;;;3.41;77.54
4745;BME280;2386;42.138;24.746;2024-01-30T07:17:18;101889.94;;;2.94;79.04
4745;BME280;2386;42.138;24.746;2024-01-30T07:19:43;101894.22;;;2.96;79.94
4745;BME280;2386;42.138;24.746;2024-01-30T07:22:09;101889.16;;;3.03;79.48
4745;BME280;2386;42.138;24.746;2024-01-30T07:24:34;101891.94;;;3.13;77.57
4745;BME280;2386;42.138;24.746;2024-01-30T07:27:00;101892.38;;;2.97;77.48
4745;BME280;2386;42.138;24.746;2024-01-30T07:29:25;101891.22;;;3.11;78.24
4745;BME280;2386;42.138;24.746;2024-01-30T07:31:51;101902.88;;;2.89;79.00
4745;BME280;2386;42.138;24.746;2024-01-30T07:34:16;101900.75;;;3.04;76.89
4745;BME280;2386;42.138;24.746;2024-01-30T07:36:42;101901.91;;;2.90;77.79
4745;BME280;2386;42.138;24.746;2024-01-30T07:39:07;101897.75;;;2.86;78.45
4745;BME280;2386;42.138;24.746;2024-01-30T07:41:33;101901.28;;;2.86;78.04
4745;BME280;2386;42.138;24.746;2024-01-30T07:43:58;101892.16;;;2.89;76.88
4745;BME280;2386;42.138;24.746;2024-01-30T07:46:23;101895.75;;;2.99;76.14
4745;BME280;2386;42.138;24.746;2024-01-30T07:48:49;101906.22;;;3.02;75.71
4745;BME280;2386;42.138;24.746;2024-01-30T07:51:14;101897.66;;;3.19;76.74
4745;BME280;2386;42.138;24.746;2024-01-30T07:53:40;101899.19;;;3.33;75.92
4745;BME280;2386;42.138;24.746;2024-01-30T07:56:07;101898.69;;;3.39;73.81
4745;BME280;2386;42.138;24.746;2024-01-30T07:58:32;101897.84;;;3.39;73.95
4745;BME280;2386;42.138;24.746;2024-01-30T08:00:58;101894.56;;;3.35;72.90
4745;BME280;2386;42.138;24.746;2024-01-30T08:03:23;101894.97;;;3.51;73.56
4745;BME280;2386;42.138;24.746;2024-01-30T08:05:49;101894.13;;;3.72;72.12
4745;BME280;2386;42.138;24.746;2024-01-30T08:08:14;101892.63;;;3.58;74.13
4745;BME280;2386;42.138;24.746;2024-01-30T08:10:40;101895.69;;;3.74;73.68
4745;BME280;2386;42.138;24.746;2024-01-30T08:13:06;101893.59;;;3.78;71.90
4745;BME280;2386;42.138;24.746;2024-01-30T08:15:31;101892.41;;;3.91;71.33
4745;BME280;2386;42.138;24.746;2024-01-30T08:17:57;101889.94;;;4.00;70.38
4745;BME280;2386;42.138;24.746;2024-01-30T08:20:24;101886.06;;;3.92;68.26
4745;BME280;2386;42.138;24.746;2024-01-30T08:22:50;101883.44;;;3.81;67.70
4745;BME280;2386;42.138;24.746;2024-01-30T08:25:15;101885.59;;;3.87;66.66
4745;BME280;2386;42.138;24.746;2024-01-30T08:27:40;101887.44;;;3.87;64.82
4745;BME280;2386;42.138;24.746;2024-01-30T08:30:07;101887.84;;;3.82;65.12
4745;BME280;2386;42.138;24.746;2024-01-30T08:32:32;101896.69;;;3.94;65.08
4745;BME280;2386;42.138;24.746;2024-01-30T08:34:58;101886.13;;;4.02;63.56
4745;BME280;2386;42.138;24.746;2024-01-30T08:37:23;101885.03;;;3.84;63.05
4745;BME280;2386;42.138;24.746;2024-01-30T08:39:49;101893.22;;;3.82;63.02
4745;BME280;2386;42.138;24.746;2024-01-30T08:42:14;101892.81;;;3.87;64.41
4745;BME280;2386;42.138;24.746;2024-01-30T08:44:40;101893.09;;;3.63;64.27
4745;BME280;2386;42.138;24.746;2024-01-30T08:47:05;101893.66;;;3.87;62.46
4745;BME280;2386;42.138;24.746;2024-01-30T08:49:31;101888.03;;;3.90;61.20
4745;BME280;2386;42.138;24.746;2024-01-30T08:51:56;101893.66;;;3.87;61.68
4745;BME280;2386;42.138;24.746;2024-01-30T08:54:23;101890.25;;;3.85;60.45
4745;BME280;2386;42.138;24.746;2024-01-30T08:56:49;101894.69;;;4.17;59.17
4745;BME280;2386;42.138;24.746;2024-01-30T08:59:14;101889.91;;;4.20;59.40
4745;BME280;2386;42.138;24.746;2024-01-30T09:01:40;101896.00;;;4.02;59.11
4745;BME280;2386;42.138;24.746;2024-01-30T09:04:05;101890.38;;;4.05;59.06
4745;BME280;2386;42.138;24.746;2024-01-30T09:06:31;101894.50;;;4.09;59.81
4745;BME280;2386;42.138;24.746;2024-01-30T09:08:56;101883.22;;;4.15;59.58
4745;BME280;2386;42.138;24.746;2024-01-30T09:11:23;101895.41;;;4.19;59.19
4745;BME280;2386;42.138;24.746;2024-01-30T09:13:48;101888.53;;;4.26;58.70
4745;BME280;2386;42.138;24.746;2024-01-30T09:16:14;101889.78;;;4.22;58.97
4745;BME280;2386;42.138;24.746;2024-01-30T09:18:41;101887.22;;;4.20;59.18
4745;BME280;2386;42.138;24.746;2024-01-30T09:21:06;101882.50;;;4.13;58.58
4745;BME280;2386;42.138;24.746;2024-01-30T09:23:31;101876.97;;;4.35;58.66
4745;BME280;2386;42.138;24.746;2024-01-30T09:25:57;101871.59;;;4.35;58.27
4745;BME280;2386;42.138;24.746;2024-01-30T09:28:23;101865.97;;;4.38;58.22
4745;BME280;2386;42.138;24.746;2024-01-30T09:30:48;101874.19;;;4.56;58.40
4745;BME280;2386;42.138;24.746;2024-01-30T09:33:14;101859.69;;;4.78;58.00
4745;BME280;2386;42.138;24.746;2024-01-30T09:35:39;101866.69;;;5.09;58.16
4745;BME280;2386;42.138;24.746;2024-01-30T09:38:04;101855.78;;;5.20;56.83
4745;BME280;2386;42.138;24.746;2024-01-30T09:40:30;101848.13;;;5.45;56.63
4745;BME280;2386;42.138;24.746;2024-01-30T09:42:55;101847.41;;;5.72;56.05
4745;BME280;2386;42.138;24.746;2024-01-30T09:45:24;101847.81;;;5.86;56.10
4745;BME280;2386;42.138;24.746;2024-01-30T09:47:50;101836.09;;;5.49;54.29
4745;BME280;2386;42.138;24.746;2024-01-30T09:50:16;101843.19;;;5.40;55.80
4745;BME280;2386;42.138;24.746;2024-01-30T09:52:43;101827.84;;;5.70;55.67
4745;BME280;2386;42.138;24.746;2024-01-30T09:55:09;101837.41;;;6.01;55.47
4745;BME280;2386;42.138;24.746;2024-01-30T09:57:35;101847.41;;;6.28;54.63
4745;BME280;2386;42.138;24.746;2024-01-30T10:00:01;101840.13;;;6.38;53.41
4745;BME280;2386;42.138;24.746;2024-01-30T10:02:27;101840.66;;;6.42;52.58
4745;BME280;2386;42.138;24.746;2024-01-30T10:04:52;101831.72;;;6.41;52.87
4745;BME280;2386;42.138;24.746;2024-01-30T10:07:18;101835.09;;;6.53;52.93
4745;BME280;2386;42.138;24.746;2024-01-30T10:09:44;101839.59;;;6.25;51.50
4745;BME280;2386;42.138;24.746;2024-01-30T10:12:10;101839.13;;;6.02;52.11
4745;BME280;2386;42.138;24.746;2024-01-30T10:14:39;101837.09;;;6.14;53.45
4745;BME280;2386;42.138;24.746;2024-01-30T10:17:08;101831.25;;;6.18;53.98
4745;BME280;2386;42.138;24.746;2024-01-30T10:19:35;101831.94;;;6.30;54.31
4745;BME280;2386;42.138;24.746;2024-01-30T10:22:00;101829.03;;;6.41;52.75
4745;BME280;2386;42.138;24.746;2024-01-30T10:24:26;101828.59;;;6.46;52.88
4745;BME280;2386;42.138;24.746;2024-01-30T10:26:53;101827.50;;;6.66;51.55
4745;BME280;2386;42.138;24.746;2024-01-30T10:29:18;101819.66;;;6.45;52.24
4745;BME280;2386;42.138;24.746;2024-01-30T10:31:44;101828.16;;;6.50;51.62
4745;BME280;2386;42.138;24.746;2024-01-30T10:34:09;101830.84;;;6.50;51.20
4745;BME280;2386;42.138;24.746;2024-01-30T10:36:40;101824.25;;;6.63;50.11
4745;BME280;2386;42.138;24.746;2024-01-30T10:39:08;101825.72;;;6.75;51.25
4745;BME280;2386;42.138;24.746;2024-01-30T10:41:42;101820.63;;;6.72;50.15
4745;BME280;2386;42.138;24.746;2024-01-30T10:44:09;101822.88;;;6.94;48.76
4745;BME280;2386;42.138;24.746;2024-01-30T10:46:38;101822.50;;;6.89;49.13
4745;BME280;2386;42.138;24.746;2024-01-30T10:49:04;101816.09;;;6.90;48.51
4745;BME280;2386;42.138;24.746;2024-01-30T10:51:31;101810.25;;;6.95;49.38
4745;BME280;2386;42.138;24.746;2024-01-30T10:53:57;101809.41;;;7.12;49.14
4745;BME280;2386;42.138;24.746;2024-01-30T10:56:24;101806.94;;;7.18;48.09
4745;BME280;2386;42.138;24.746;2024-01-30T10:58:51;101800.94;;;7.07;48.79
4745;BME280;2386;42.138;24.746;2024-01-30T11:01:19;101809.25;;;7.31;47.30
4745;BME280;2386;42.138;24.746;2024-01-30T11:03:45;101806.63;;;7.21;47.21
4745;BME280;2386;42.138;24.746;2024-01-30T11:06:11;101806.47;;;7.41;46.94
4745;BME280;2386;42.138;24.746;2024-01-30T11:08:43;101805.47;;;7.24;46.41
4745;BME280;2386;42.138;24.746;2024-01-30T11:11:09;101805.38;;;7.34;47.83
4745;BME280;2386;42.138;24.746;2024-01-30T11:13:36;101800.84;;;7.60;47.61
4745;BME280;2386;42.138;24.746;2024-01-30T11:16:02;101795.88;;;7.73;47.31
4745;BME280;2386;42.138;24.746;2024-01-30T11:18:32;101793.13;;;7.91;45.92
4745;BME280;2386;42.138;24.746;2024-01-30T11:20:59;101786.75;;;8.00;45.57
4745;BME280;2386;42.138;24.746;2024-01-30T11:23:30;101789.22;;;8.28;45.21
4745;BME280;2386;42.138;24.746;2024-01-30T11:25:56;101787.13;;;8.39;43.99
4745;BME280;2386;42.138;24.746;2024-01-30T11:28:22;101784.06;;;8.34;44.83
4745;BME280;2386;42.138;24.746;2024-01-30T11:30:48;101782.25;;;8.09;44.49
4745;BME280;2386;42.138;24.746;2024-01-30T11:33:27;101775.69;;;8.19;44.45
4745;BME280;2386;42.138;24.746;2024-01-30T11:35:53;101769.41;;;8.19;44.85
4745;BME280;2386;42.138;24.746;2024-01-30T11:38:19;101770.53;;;8.00;45.08
4745;BME280;2386;42.138;24.746;2024-01-30T11:40:45;101761.91;;;7.45;46.18
4745;BME280;2386;42.138;24.746;2024-01-30T11:43:11;101762.63;;;7.73;46.19
4745;BME280;2386;42.138;24.746;2024-01-30T11:45:37;101756.38;;;7.72;45.88
4745;BME280;2386;42.138;24.746;2024-01-30T11:48:03;101758.28;;;7.54;45.48
4745;BME280;2386;42.138;24.746;2024-01-30T11:50:35;101749.06;;;7.39;46.16
4745;BME280;2386;42.138;24.746;2024-01-30T11:53:01;101743.69;;;7.39;46.56
4745;BME280;2386;42.138;24.746;2024-01-30T11:55:27;101739.97;;;7.40;45.58
4745;BME280;2386;42.138;24.746;2024-01-30T11:57:57;101736.22;;;7.33;46.56
4745;BME280;2386;42.138;24.746;2024-01-30T12:00:23;101731.19;;;7.38;45.67
4745;BME280;2386;42.138;24.746;2024-01-30T12:02:53;101733.19;;;7.36;46.07
4745;BME280;2386;42.138;24.746;2024-01-30T12:05:24;101720.56;;;7.44;45.01
4745;BME280;2386;42.138;24.746;2024-01-30T12:07:50;101721.91;;;7.40;45.96
4745;BME280;2386;42.138;24.746;2024-01-30T12:10:16;101720.41;;;7.46;45.67
4745;BME280;2386;42.138;24.746;2024-01-30T12:12:45;101717.84;;;7.36;44.59
4745;BME280;2386;42.138;24.746;2024-01-30T12:15:11;101709.31;;;7.23;45.20
4745;BME280;2386;42.138;24.746;2024-01-30T12:17:36;101710.97;;;7.42;45.63
4745;BME280;2386;42.138;24.746;2024-01-30T12:20:12;101703.50;;;7.36;45.91
4745;BME280;2386;42.138;24.746;2024-01-30T12:22:38;101696.78;;;7.48;45.28
4745;BME280;2386;42.138;24.746;2024-01-30T12:25:12;101696.63;;;7.41;45.13
4745;BME280;2386;42.138;24.746;2024-01-30T12:27:38;101684.28;;;7.39;45.54
4745;BME280;2386;42.138;24.746;2024-01-30T12:30:10;101685.97;;;7.40;44.61
4745;BME280;2386;42.138;24.746;2024-01-30T12:32:37;101685.81;;;7.41;44.58
4745;BME280;2386;42.138;24.746;2024-01-30T12:35:07;101682.59;;;7.38;45.21
4745;BME280;2386;42.138;24.746;2024-01-30T12:37:33;101682.59;;;7.38;44.37
4745;BME280;2386;42.138;24.746;2024-01-30T12:39:59;101685.97;;;7.40;44.35
4745;BME280;2386;42.138;24.746;2024-01-30T12:42:27;101684.91;;;7.33;45.34
4745;BME280;2386;42.138;24.746;2024-01-30T12:44:52;101681.53;;;7.31;45.81
4745;BME280;2386;42.138;24.746;2024-01-30T12:47:18;101682.91;;;7.35;45.21
4745;BME280;2386;42.138;24.746;2024-01-30T12:49:44;101676.88;;;7.41;44.62
4745;BME280;2386;42.138;24.746;2024-01-30T12:52:10;101678.34;;;7.35;45.25
4745;BME280;2386;42.138;24.746;2024-01-30T12:54:36;101672.22;;;7.25;45.60
4745;BME280;2386;42.138;24.746;2024-01-30T12:57:02;101671.00;;;7.19;46.02
4745;BME280;2386;42.138;24.746;2024-01-30T12:59:28;101670.03;;;7.29;45.32
4745;BME280;2386;42.138;24.746;2024-01-30T13:01:53;101676.75;;;7.24;46.35
4745;BME280;2386;42.138;24.746;2024-01-30T13:04:19;101672.84;;;7.19;46.70
4745;BME280;2386;42.138;24.746;2024-01-30T13:06:44;101667.44;;;7.19;45.85